createdAt,value
2022-11-23T00:01:40.739Z,8.13
2022-11-23T00:06:43.675Z,8.50
2022-11-23T00:11:46.602Z,7.60
2022-11-23T00:16:50.890Z,8.90
2022-11-23T00:21:53.728Z,6.70
2022-11-23T00:26:56.591Z,6.57
2022-11-23T00:32:00.805Z,6.30
2022-11-23T00:37:03.713Z,6.90
2022-11-23T00:42:06.718Z,5.80
2022-11-23T00:47:10.941Z,5.70
2022-11-23T00:52:13.820Z,5.80
2022-11-23T00:57:16.709Z,7.10
2022-11-23T01:02:22.105Z,7.20
2022-11-23T01:07:24.996Z,7.80
2022-11-23T01:12:30.046Z,7.67
2022-11-23T01:17:34.325Z,7.37
2022-11-23T01:22:38.414Z,6.33
2022-11-23T01:27:41.347Z,7.80
2022-11-23T01:32:45.559Z,8.23
2022-11-23T01:37:48.515Z,7.30
2022-11-23T01:42:55.834Z,9.60
2022-11-23T01:48:00.183Z,10.23
2022-11-23T01:53:03.643Z,10.47
2022-11-23T01:58:09.164Z,8.00
2022-11-23T02:03:14.376Z,9.60
2022-11-23T02:08:18.395Z,11.13
2022-11-23T02:13:21.584Z,11.30
2022-11-23T02:18:28.386Z,11.20
2022-11-23T02:23:38.683Z,11.10
2022-11-23T02:28:46.712Z,10.60
2022-11-23T02:33:49.576Z,8.27
2022-11-23T02:38:54.564Z,6.13
2022-11-23T02:43:59.839Z,5.53
2022-11-23T02:49:02.736Z,5.27
2022-11-23T02:54:05.778Z,7.07
2022-11-23T02:59:13.520Z,8.50
2022-11-23T03:04:23.050Z,8.17
2022-11-23T03:09:30.593Z,8.30
2022-11-23T03:14:35.289Z,6.60
2022-11-23T03:19:38.155Z,5.77
2022-11-23T03:24:41.264Z,5.63
2022-11-23T03:29:50.644Z,4.93
2022-11-23T03:34:56.717Z,6.03
2022-11-23T03:40:01.370Z,6.80
2022-11-23T03:45:23.992Z,5.80
2022-11-23T03:50:27.211Z,6.70
2022-11-23T03:55:30.238Z,6.60
2022-11-23T04:00:36.395Z,6.90
2022-11-23T04:05:40.011Z,7.67
2022-11-23T04:11:01.343Z,6.93
2022-11-23T04:16:15.286Z,6.00
2022-11-23T04:21:18.347Z,6.20
2022-11-23T04:26:21.493Z,6.40
2022-11-23T04:31:26.038Z,6.83
2022-11-23T04:36:44.298Z,6.27
2022-11-23T04:41:49.127Z,6.20
2022-11-23T04:46:54.131Z,6.10
2022-11-23T04:51:57.636Z,7.03
2022-11-23T04:57:07.384Z,7.10
2022-11-23T05:02:12.157Z,6.43
2022-11-23T05:07:35.369Z,6.03
2022-11-23T05:12:39.785Z,6.47
2022-11-23T05:17:45.658Z,8.53
2022-11-23T05:22:57.395Z,6.43
2022-11-23T05:28:11.327Z,6.80
2022-11-23T05:33:21.439Z,7.07
2022-11-23T05:38:24.423Z,6.93
2022-11-23T05:43:27.535Z,6.57
2022-11-23T05:48:31.971Z,6.10
2022-11-23T05:53:35.120Z,5.70
2022-11-23T05:58:47.833Z,4.60
2022-11-23T06:03:52.764Z,4.73
2022-11-23T06:08:55.798Z,6.10
2022-11-23T06:13:59.148Z,8.60
2022-11-23T06:19:03.549Z,6.63
2022-11-23T06:24:07.358Z,6.90
2022-11-23T06:29:13.451Z,6.90
2022-11-23T06:34:18.000Z,6.80
2022-11-23T06:39:21.829Z,6.20
2022-11-23T06:44:24.783Z,8.27
2022-11-23T06:49:31.004Z,7.60
2022-11-23T06:54:48.112Z,6.90
2022-11-23T06:59:51.626Z,7.50
2022-11-23T07:05:02.086Z,6.50
2022-11-23T07:10:08.524Z,7.77
2022-11-23T07:15:22.741Z,7.90
2022-11-23T07:20:29.307Z,10.37
2022-11-23T07:25:33.466Z,8.33
2022-11-23T07:30:37.513Z,8.83
2022-11-23T07:35:42.665Z,9.80
2022-11-23T07:40:45.695Z,11.20
2022-11-23T07:46:00.315Z,10.97
2022-11-23T07:51:04.719Z,10.57
2022-11-23T07:56:08.377Z,13.00
2022-11-23T08:01:11.812Z,12.80
2022-11-23T08:06:16.863Z,11.90
2022-11-23T08:11:20.711Z,12.73
2022-11-23T08:16:23.649Z,15.13
2022-11-23T08:21:27.928Z,16.77
2022-11-23T08:26:30.820Z,18.07
2022-11-23T08:31:33.984Z,16.17
2022-11-23T08:36:38.415Z,16.70
2022-11-23T08:41:41.354Z,13.20
2022-11-23T08:46:44.240Z,10.60
2022-11-23T08:51:50.246Z,11.30
2022-11-23T08:56:53.865Z,14.40
2022-11-23T09:01:56.757Z,15.00
2022-11-23T09:07:01.035Z,11.30
2022-11-23T09:12:03.966Z,11.20
2022-11-23T09:17:06.904Z,11.70
2022-11-23T09:22:11.173Z,12.33
2022-11-23T09:27:14.008Z,12.47
2022-11-23T09:32:17.156Z,15.73
2022-11-23T09:37:21.407Z,13.87
2022-11-23T09:42:53.146Z,15.10
2022-11-23T09:48:16.170Z,21.97
2022-11-23T09:53:25.769Z,21.00
2022-11-23T09:58:33.715Z,13.73
2022-11-23T10:10:26.407Z,14.67
2022-11-23T10:15:33.641Z,13.83
2022-11-23T10:20:50.876Z,15.30
2022-11-23T10:25:55.429Z,13.60
2022-11-23T10:31:13.314Z,14.60
2022-11-23T10:36:16.316Z,15.80
2022-11-23T10:41:20.623Z,16.10
2022-11-23T10:46:29.366Z,16.43
2022-11-23T10:51:34.443Z,21.90
2022-11-23T10:56:47.683Z,17.53
2022-11-23T11:02:01.747Z,13.17
2022-11-23T11:07:38.005Z,14.93
2022-11-23T11:12:52.617Z,15.60
2022-11-23T11:17:57.043Z,15.33
2022-11-23T11:23:01.973Z,15.23
2022-11-23T11:28:19.619Z,14.77
2022-11-23T11:33:33.318Z,14.23
2022-11-23T11:38:44.193Z,13.97
2022-11-23T11:44:03.858Z,13.90
2022-11-23T11:49:14.884Z,14.27
2022-11-23T11:54:24.408Z,13.87
2022-11-23T11:59:31.256Z,13.90
2022-11-23T12:04:41.272Z,13.07
2022-11-23T12:09:49.478Z,13.30
2022-11-23T12:14:53.802Z,14.10
2022-11-23T12:20:06.663Z,14.00
2022-11-23T12:25:24.929Z,12.67
2022-11-23T12:30:35.600Z,12.40
2022-11-23T12:36:03.754Z,12.90
2022-11-23T12:41:19.980Z,12.67
2022-11-23T12:46:34.909Z,12.20
2022-11-23T12:51:45.580Z,14.07
2022-11-23T12:57:06.009Z,14.77
2022-11-23T13:02:26.371Z,13.60
2022-11-23T13:08:05.078Z,14.17
2022-11-23T13:13:41.344Z,14.10
2022-11-23T13:19:14.552Z,14.67
2022-11-23T13:24:32.295Z,14.77
2022-11-23T13:29:58.871Z,15.20
2022-11-23T13:35:03.350Z,14.30
2022-11-23T13:40:07.135Z,15.50
2022-11-23T13:45:28.989Z,15.13
2022-11-23T13:50:34.110Z,17.00
2022-11-23T13:55:39.302Z,16.50
2022-11-23T14:00:46.884Z,16.90
2022-11-23T14:06:04.301Z,16.83
2022-11-23T14:11:14.262Z,17.80
2022-11-23T14:16:24.966Z,16.53
2022-11-23T14:21:38.590Z,16.37
2022-11-23T14:26:52.928Z,16.23
2022-11-23T14:32:17.940Z,16.30
2022-11-23T14:37:33.321Z,16.17
2022-11-23T14:42:42.800Z,16.07
2022-11-23T14:47:45.818Z,16.20
2022-11-23T14:52:51.648Z,15.60
2022-11-23T14:57:59.008Z,16.87
2022-11-23T15:03:42.106Z,18.07
2022-11-23T15:08:39.603Z,15.23
2022-11-23T15:13:48.445Z,16.17
2022-11-23T15:18:51.905Z,14.60
2022-11-23T15:23:58.374Z,17.60
2022-11-23T15:29:01.422Z,17.10
2022-11-23T15:34:12.457Z,13.60
2022-11-23T15:39:19.395Z,12.27
2022-11-23T15:44:27.174Z,14.67
2022-11-23T15:49:31.100Z,28.27
2022-11-23T15:54:37.769Z,26.47
2022-11-23T15:59:44.218Z,19.37
2022-11-23T16:04:47.127Z,21.07
2022-11-23T16:09:53.722Z,18.50
2022-11-23T16:14:58.711Z,20.40
2022-11-23T16:20:06.375Z,19.13
2022-11-23T16:25:25.636Z,14.70
2022-11-23T16:30:36.316Z,15.00
2022-11-23T16:35:39.309Z,16.77
2022-11-23T16:40:44.637Z,15.90
2022-11-23T16:45:50.692Z,16.20
2022-11-23T16:50:54.833Z,16.83
2022-11-23T16:55:59.655Z,14.80
2022-11-23T17:01:03.322Z,10.40
2022-11-23T17:06:06.619Z,10.47
2022-11-23T17:11:14.939Z,11.27
2022-11-23T17:16:20.834Z,11.37
2022-11-23T17:21:24.050Z,12.57
2022-11-23T17:26:33.992Z,15.13
2022-11-23T17:31:36.968Z,10.37
2022-11-23T17:36:40.782Z,10.00
2022-11-23T17:41:45.037Z,11.27
2022-11-23T17:46:48.451Z,11.63
2022-11-23T17:51:51.373Z,9.30
2022-11-23T17:56:57.711Z,10.57
2022-11-23T18:02:00.648Z,12.67
2022-11-23T18:07:04.450Z,13.40
2022-11-23T18:12:09.238Z,11.13
2022-11-23T18:17:12.193Z,12.20
2022-11-23T18:22:15.169Z,13.40
2022-11-23T18:27:19.593Z,12.50
2022-11-23T18:32:22.541Z,14.83
2022-11-23T18:37:25.550Z,13.33
2022-11-23T18:42:29.830Z,12.40
2022-11-23T18:47:32.722Z,12.83
2022-11-23T18:52:35.772Z,12.83
2022-11-23T18:57:40.037Z,14.77
2022-11-23T19:02:42.951Z,10.50
2022-11-23T19:07:45.952Z,9.40
2022-11-23T19:12:50.279Z,14.90
2022-11-23T19:17:53.278Z,12.37
2022-11-23T19:22:57.147Z,24.33
2022-11-23T19:28:02.784Z,11.20
2022-11-23T19:33:05.695Z,11.83
2022-11-23T19:38:11.216Z,10.87
2022-11-23T19:43:15.700Z,10.40
2022-11-23T19:48:19.289Z,10.50
2022-11-23T19:53:22.219Z,14.80
2022-11-23T19:58:26.624Z,13.13
2022-11-23T20:03:29.690Z,11.60
2022-11-23T20:08:32.737Z,14.00
2022-11-23T20:13:37.426Z,13.50
2022-11-23T20:18:40.864Z,14.27
2022-11-23T20:23:45.151Z,14.60
2022-11-23T20:28:52.126Z,14.97
2022-11-23T20:33:55.807Z,13.40
2022-11-23T20:38:59.269Z,13.63
2022-11-23T20:44:06.160Z,12.90
2022-11-23T20:49:09.100Z,13.77
2022-11-23T20:54:12.283Z,14.43
2022-11-23T20:59:17.290Z,15.73
2022-11-23T21:04:20.205Z,17.80
2022-11-23T21:09:23.183Z,16.73
2022-11-23T21:14:30.573Z,15.63
2022-11-23T21:19:36.407Z,15.10
2022-11-23T21:24:39.349Z,16.23
2022-11-23T21:29:45.064Z,15.50
2022-11-23T21:34:48.021Z,15.57
2022-11-23T21:39:53.064Z,14.27
2022-11-23T21:44:57.591Z,13.83
2022-11-23T21:50:00.747Z,16.20
2022-11-23T21:55:03.640Z,17.57
2022-11-23T22:00:09.789Z,19.37
2022-11-23T22:05:32.674Z,21.33
2022-11-23T22:10:35.639Z,19.17
2022-11-23T22:15:40.013Z,20.70
2022-11-23T22:20:44.146Z,22.33
2022-11-23T22:25:48.355Z,23.73
2022-11-23T22:30:55.017Z,19.70
2022-11-23T22:36:01.150Z,18.10
2022-11-23T22:41:05.239Z,17.50
2022-11-23T22:46:12.788Z,16.27
2022-11-23T22:51:18.198Z,14.70
2022-11-23T22:56:21.470Z,14.07
2022-11-23T23:01:28.591Z,14.40
2022-11-23T23:06:34.989Z,14.43
2022-11-23T23:11:39.091Z,13.90
2022-11-23T23:16:44.290Z,12.30
2022-11-23T23:21:47.301Z,12.20
2022-11-23T23:26:50.281Z,12.13
2022-11-23T23:31:54.647Z,11.43
2022-11-23T23:36:57.661Z,11.60
2022-11-23T23:42:00.651Z,10.27
2022-11-23T23:47:05.010Z,9.43
2022-11-23T23:52:07.958Z,8.80
2022-11-23T23:57:10.949Z,9.13
